Time;durP1;ratioP1;P1;durP2;ratioP2;P2;SDS_P1;SDS_P2;PMS_P1;PMS_P2;Temp;Humidity;BMP_temperature;BMP_pressure;BME280_temperature;BME280_humidity;BME280_pressure;Samples;Min_cycle;Max_cycle;Signal;HPM_P1;HPM_P2
2023/08/12 00:00:11;;;;;;;11.75;7.70;;;22.00;97.20;;;;;;5015487;28;20116;-78
2023/08/12 00:02:40;;;;;;;7.90;6.03;;;22.00;97.90;;;;;;4999057;28;20037;-77
2023/08/12 00:05:06;;;;;;;8.80;7.28;;;21.90;97.60;;;;;;5017641;28;20037;-77
2023/08/12 00:07:32;;;;;;;8.32;6.57;;;21.80;97.40;;;;;;5015554;28;20036;-77
2023/08/12 00:09:59;;;;;;;22.40;17.00;;;21.80;97.40;;;;;;5004052;28;20030;-78
2023/08/12 00:12:25;;;;;;;29.80;22.30;;;21.70;96.80;;;;;;5008932;28;20042;-78
2023/08/12 00:14:50;;;;;;;29.08;22.13;;;21.70;96.40;;;;;;5018255;28;20508;-77
2023/08/12 00:17:16;;;;;;;8.32;6.05;;;21.60;96.20;;;;;;5002147;28;20347;-77
2023/08/12 00:19:42;;;;;;;11.07;9.25;;;21.60;96.90;;;;;;5018855;28;20059;-78
2023/08/12 00:22:07;;;;;;;11.98;8.85;;;21.70;97.40;;;;;;4982371;28;20046;-77
2023/08/12 00:24:33;;;;;;;11.18;8.57;;;21.80;98.30;;;;;;5014866;28;20056;-78
2023/08/12 00:26:58;;;;;;;11.35;7.75;;;21.80;98.50;;;;;;5016701;28;20041;-78
2023/08/12 00:29:24;;;;;;;12.48;10.63;;;21.70;99.20;;;;;;5017056;28;20041;-78
2023/08/12 00:31:50;;;;;;;10.98;9.80;;;21.80;99.90;;;;;;5015733;28;20044;-78
2023/08/12 00:34:15;;;;;;;16.38;11.32;;;21.80;99.90;;;;;;5015797;28;20489;-78
2023/08/12 00:36:41;;;;;;;11.20;9.80;;;21.70;99.70;;;;;;4989142;28;20029;-78
2023/08/12 00:39:06;;;;;;;17.73;12.15;;;21.60;98.80;;;;;;5021732;28;20033;-78
2023/08/12 00:41:32;;;;;;;21.98;18.15;;;21.60;99.90;;;;;;5019152;28;20125;-78
2023/08/12 00:43:57;;;;;;;15.60;11.32;;;21.60;99.90;;;;;;5021344;28;20117;-78
2023/08/12 00:46:24;;;;;;;25.40;18.55;;;21.60;99.90;;;;;;5016728;28;21279;-78
2023/08/12 00:48:49;;;;;;;23.90;18.73;;;21.60;99.90;;;;;;5015026;28;20124;-78
2023/08/12 00:51:15;;;;;;;14.40;10.25;;;21.50;99.90;;;;;;5016425;28;20370;-78
2023/08/12 00:53:42;;;;;;;18.65;14.65;;;21.60;99.90;;;;;;5012918;28;20087;-79
2023/08/12 00:56:07;;;;;;;9.00;7.45;;;21.60;99.90;;;;;;5015838;28;20044;-77
2023/08/12 00:58:33;;;;;;;12.90;9.98;;;21.50;99.90;;;;;;5019373;28;20041;-78
2023/08/12 01:00:59;;;;;;;14.52;11.55;;;21.50;99.90;;;;;;5020913;28;20404;-77
2023/08/12 01:03:24;;;;;;;24.50;18.83;;;21.50;99.90;;;;;;4997737;28;20052;-78
2023/08/12 01:05:50;;;;;;;18.65;14.52;;;21.40;99.90;;;;;;5018422;28;20037;-77
2023/08/12 01:08:15;;;;;;;16.88;12.52;;;21.40;99.90;;;;;;5016889;28;20460;-78
2023/08/12 01:10:49;;;;;;;21.65;17.75;;;21.40;99.90;;;;;;4988248;28;20524;-78
2023/08/12 01:13:33;;;;;;;27.55;21.23;;;21.50;99.90;;;;;;5006924;28;20029;-78
2023/08/12 01:15:59;;;;;;;27.77;21.85;;;21.40;99.90;;;;;;5019255;28;20025;-78
2023/08/12 01:18:24;;;;;;;33.38;24.15;;;21.40;99.90;;;;;;4996346;28;20045;-77
2023/08/12 01:20:50;;;;;;;19.15;14.32;;;21.30;99.90;;;;;;4995694;28;20538;-80
2023/08/12 01:23:16;;;;;;;13.27;10.32;;;21.20;99.90;;;;;;4983600;28;20018;-78
2023/08/12 01:25:42;;;;;;;22.80;18.83;;;21.20;99.90;;;;;;5016509;28;20025;-77
2023/08/12 01:28:07;;;;;;;11.35;8.43;;;21.20;99.90;;;;;;4989975;28;20030;-79
2023/08/12 01:30:49;;;;;;;14.65;13.05;;;21.10;99.90;;;;;;5001130;28;20044;-78
2023/08/12 01:33:35;;;;;;;21.10;16.88;;;21.20;99.90;;;;;;5014224;28;20366;-78
2023/08/12 01:36:27;;;;;;;15.60;11.27;;;21.20;99.90;;;;;;5011014;28;20030;-78
2023/08/12 01:38:53;;;;;;;22.88;17.42;;;21.20;99.90;;;;;;5006852;28;20498;-78
2023/08/12 01:41:18;;;;;;;17.60;13.32;;;21.20;99.90;;;;;;5016848;28;20036;-78
2023/08/12 01:43:44;;;;;;;19.98;14.63;;;21.20;99.90;;;;;;4989122;28;20045;-79
2023/08/12 01:46:10;;;;;;;22.35;17.00;;;21.10;99.90;;;;;;5014545;28;20481;-78
2023/08/12 01:48:35;;;;;;;12.98;9.10;;;21.20;99.90;;;;;;5014394;28;20037;-78
2023/08/12 01:51:01;;;;;;;12.65;10.95;;;21.30;99.90;;;;;;5017733;28;20120;-79
2023/08/12 01:53:26;;;;;;;22.83;15.35;;;21.30;99.90;;;;;;5016177;28;20117;-78
2023/08/12 01:55:52;;;;;;;15.25;11.02;;;21.20;99.90;;;;;;5018354;28;20110;-79
2023/08/12 01:58:18;;;;;;;15.60;10.95;;;21.10;99.90;;;;;;4988231;28;20120;-79
2023/08/12 02:00:43;;;;;;;17.10;12.43;;;21.20;99.90;;;;;;5014808;28;20084;-79
2023/08/12 02:03:09;;;;;;;10.32;7.13;;;21.20;99.90;;;;;;5002369;28;20096;-79
2023/08/12 02:05:36;;;;;;;11.75;8.98;;;21.10;99.90;;;;;;5012629;28;21041;-79
2023/08/12 02:08:03;;;;;;;9.60;7.30;;;21.10;99.90;;;;;;5001612;28;20046;-79
2023/08/12 02:10:28;;;;;;;23.20;18.02;;;21.00;99.90;;;;;;5018460;28;20710;-79
2023/08/12 02:12:54;;;;;;;26.35;20.45;;;21.00;99.90;;;;;;5016725;28;20066;-79
2023/08/12 02:15:20;;;;;;;16.52;13.30;;;20.90;99.90;;;;;;5010171;28;20101;-79
2023/08/12 02:17:45;;;;;;;13.57;10.48;;;20.90;99.90;;;;;;5000676;28;20068;-78
2023/08/12 02:20:12;;;;;;;6.80;6.10;;;20.90;99.90;;;;;;5016440;28;20129;-79
2023/08/12 02:22:37;;;;;;;7.65;6.45;;;20.90;99.90;;;;;;5015055;28;20036;-79
2023/08/12 02:25:03;;;;;;;27.73;19.70;;;20.90;99.90;;;;;;5012396;28;20037;-79
2023/08/12 02:27:29;;;;;;;8.90;7.25;;;20.90;99.90;;;;;;5012756;28;20235;-79
2023/08/12 02:29:54;;;;;;;27.67;20.02;;;20.80;99.90;;;;;;5018167;28;20038;-79
2023/08/12 02:32:20;;;;;;;24.20;18.52;;;20.80;99.90;;;;;;4987272;28;20048;-79
2023/08/12 02:34:45;;;;;;;24.85;19.15;;;20.80;99.90;;;;;;4998069;28;20032;-79
2023/08/12 02:37:12;;;;;;;25.00;19.65;;;20.70;99.90;;;;;;5014125;28;20044;-79
2023/08/12 02:39:38;;;;;;;27.88;19.80;;;20.80;99.90;;;;;;4996535;28;20037;-79
2023/08/12 02:42:04;;;;;;;26.92;20.83;;;20.80;99.90;;;;;;5015786;28;20080;-79
2023/08/12 02:44:29;;;;;;;28.35;20.55;;;20.70;99.90;;;;;;5010802;28;20034;-79
2023/08/12 02:46:55;;;;;;;30.13;20.30;;;20.70;99.90;;;;;;5012269;28;20033;-80
2023/08/12 02:49:20;;;;;;;27.90;18.88;;;20.70;99.90;;;;;;4992075;28;20034;-79
2023/08/12 02:51:46;;;;;;;11.02;7.97;;;20.70;99.90;;;;;;5011565;28;20037;-79
2023/08/12 02:54:11;;;;;;;19.90;16.90;;;20.70;99.90;;;;;;5015943;28;20033;-79
2023/08/12 02:56:37;;;;;;;31.75;23.20;;;20.70;99.90;;;;;;5011411;28;20046;-79
2023/08/12 02:59:03;;;;;;;25.38;20.85;;;20.60;99.90;;;;;;5010928;28;20045;-79
2023/08/12 03:01:29;;;;;;;21.17;17.02;;;20.60;99.90;;;;;;4994342;28;20037;-80
2023/08/12 03:03:55;;;;;;;26.08;21.30;;;20.60;99.90;;;;;;5011140;28;20482;-79
2023/08/12 03:06:21;;;;;;;10.75;8.00;;;20.70;99.90;;;;;;5015605;28;20084;-79
2023/08/12 03:08:46;;;;;;;7.18;6.47;;;20.60;99.90;;;;;;4990042;28;20524;-79
2023/08/12 03:11:12;;;;;;;15.75;13.02;;;20.60;99.90;;;;;;5019787;28;20118;-79
2023/08/12 03:13:37;;;;;;;15.65;10.82;;;20.60;99.90;;;;;;5020461;28;20936;-79
2023/08/12 03:16:03;;;;;;;11.00;9.50;;;20.60;99.90;;;;;;4999427;28;20036;-79
2023/08/12 03:18:28;;;;;;;8.40;6.05;;;20.60;99.90;;;;;;5018211;28;20040;-78
2023/08/12 03:20:54;;;;;;;10.55;8.05;;;20.70;99.90;;;;;;5018106;28;20483;-79
2023/08/12 03:23:19;;;;;;;18.77;14.85;;;20.70;99.90;;;;;;5019834;28;20049;-79
2023/08/12 03:25:47;;;;;;;13.05;10.43;;;20.70;99.90;;;;;;5005985;28;20060;-79
2023/08/12 03:28:13;;;;;;;13.15;10.93;;;20.60;99.90;;;;;;5016548;28;20052;-79
2023/08/12 03:30:38;;;;;;;12.32;8.15;;;20.70;99.90;;;;;;5017616;28;20030;-79
2023/08/12 03:33:04;;;;;;;10.90;9.25;;;20.60;99.90;;;;;;5014966;28;20041;-79
2023/08/12 03:35:30;;;;;;;12.07;9.13;;;20.70;99.90;;;;;;5018042;28;20121;-79
2023/08/12 03:37:55;;;;;;;10.23;7.85;;;20.70;99.90;;;;;;5018418;28;20049;-79
2023/08/12 03:40:21;;;;;;;13.50;10.73;;;20.70;99.90;;;;;;5003136;28;20479;-79
2023/08/12 03:42:46;;;;;;;19.17;14.68;;;20.60;99.90;;;;;;5007529;28;20536;-78
2023/08/12 03:45:12;;;;;;;11.63;8.15;;;20.60;99.90;;;;;;4995767;28;20026;-79
2023/08/12 03:47:37;;;;;;;11.15;9.60;;;20.70;99.90;;;;;;5017908;28;20025;-79
2023/08/12 03:50:03;;;;;;;20.75;16.02;;;20.70;99.90;;;;;;5017079;28;20485;-78
2023/08/12 03:52:29;;;;;;;12.23;7.97;;;20.70;99.90;;;;;;5003035;28;20291;-78
2023/08/12 03:54:54;;;;;;;19.30;11.98;;;20.60;99.90;;;;;;5015415;28;20033;-78
2023/08/12 03:57:20;;;;;;;12.38;9.75;;;20.70;99.90;;;;;;5015534;28;20041;-79
2023/08/12 03:59:46;;;;;;;7.03;5.97;;;20.70;99.90;;;;;;5001430;28;20517;-79
2023/08/12 04:02:11;;;;;;;14.32;6.60;;;20.70;99.90;;;;;;5013714;28;20537;-78
2023/08/12 04:04:37;;;;;;;16.10;11.18;;;20.60;99.90;;;;;;5018386;28;20030;-79
2023/08/12 04:07:02;;;;;;;10.05;8.15;;;20.70;99.90;;;;;;5015277;28;20045;-78
2023/08/12 04:09:28;;;;;;;11.32;9.48;;;20.60;99.90;;;;;;5017419;28;20461;-79
2023/08/12 04:11:53;;;;;;;15.60;11.85;;;20.60;99.90;;;;;;4988055;28;20852;-78
2023/08/12 04:14:19;;;;;;;10.05;8.02;;;20.60;99.90;;;;;;4991130;28;20844;-78
2023/08/12 04:16:44;;;;;;;10.75;7.70;;;20.50;99.90;;;;;;4993986;28;20037;-78
2023/08/12 04:19:10;;;;;;;16.60;12.38;;;20.60;99.90;;;;;;5015443;28;20107;-79
2023/08/12 04:21:35;;;;;;;16.42;14.35;;;20.60;99.90;;;;;;4996410;28;20037;-78
2023/08/12 04:24:01;;;;;;;11.85;8.32;;;20.60;99.90;;;;;;4995202;28;20057;-79
2023/08/12 04:26:27;;;;;;;14.02;11.35;;;20.60;99.90;;;;;;5004273;28;20046;-78
2023/08/12 04:28:52;;;;;;;19.15;14.95;;;20.50;99.90;;;;;;5018497;28;20338;-78
2023/08/12 04:31:18;;;;;;;18.27;13.88;;;20.50;99.90;;;;;;4982956;28;20029;-79
2023/08/12 04:33:43;;;;;;;16.08;13.73;;;20.40;99.90;;;;;;5003017;28;20026;-78
2023/08/12 04:36:09;;;;;;;22.05;15.55;;;20.40;99.90;;;;;;5015070;28;20148;-78
2023/08/12 04:38:35;;;;;;;18.77;13.63;;;20.40;99.90;;;;;;5000090;28;20026;-78
2023/08/12 04:41:00;;;;;;;9.55;8.43;;;20.50;99.90;;;;;;5014930;28;20046;-79
2023/08/12 04:43:26;;;;;;;13.88;10.75;;;20.40;99.90;;;;;;5003256;28;20033;-78
2023/08/12 04:45:52;;;;;;;15.50;10.98;;;20.50;99.90;;;;;;5016468;28;20052;-78
2023/08/12 04:48:17;;;;;;;17.60;13.98;;;20.40;99.90;;;;;;5015509;28;20045;-78
2023/08/12 04:50:43;;;;;;;21.02;14.65;;;20.40;99.90;;;;;;5018425;28;20029;-78
2023/08/12 04:53:09;;;;;;;12.35;9.60;;;20.40;99.90;;;;;;4999817;28;20084;-78
2023/08/12 04:55:34;;;;;;;9.27;7.57;;;20.40;99.90;;;;;;4983419;28;20091;-78
2023/08/12 04:58:01;;;;;;;16.40;10.60;;;20.50;99.90;;;;;;5016701;28;20029;-78
2023/08/12 05:00:27;;;;;;;11.82;6.93;;;20.60;99.90;;;;;;5003663;28;20857;-78
2023/08/12 05:02:53;;;;;;;13.27;11.48;;;20.60;99.90;;;;;;5014327;28;20034;-78
2023/08/12 05:05:19;;;;;;;17.42;12.23;;;20.60;99.90;;;;;;5016506;28;21145;-78
2023/08/12 05:07:48;;;;;;;20.58;13.70;;;20.50;99.90;;;;;;5015608;28;20101;-78
2023/08/12 05:10:17;;;;;;;8.43;6.00;;;20.40;99.90;;;;;;5015994;28;20030;-79
2023/08/12 05:12:46;;;;;;;15.25;11.70;;;20.50;99.90;;;;;;4999781;28;20026;-78
2023/08/12 05:15:11;;;;;;;20.50;13.48;;;20.60;99.90;;;;;;5017227;28;20064;-78
2023/08/12 05:17:37;;;;;;;16.67;12.95;;;20.70;99.90;;;;;;5017829;28;20049;-78
2023/08/12 05:20:03;;;;;;;10.90;9.15;;;20.70;99.90;;;;;;5001032;28;20025;-80
2023/08/12 05:22:29;;;;;;;8.40;6.88;;;20.70;99.90;;;;;;5000540;28;20045;-78
2023/08/12 05:24:54;;;;;;;13.52;10.23;;;20.90;99.90;;;;;;5008262;28;20034;-80
2023/08/12 05:27:20;;;;;;;9.40;7.88;;;20.90;99.90;;;;;;5013619;28;20056;-79
2023/08/12 05:29:45;;;;;;;6.68;5.97;;;21.00;99.90;;;;;;5015840;28;20112;-80
2023/08/12 05:32:11;;;;;;;7.95;6.20;;;21.10;99.90;;;;;;5012781;28;20040;-79
2023/08/12 05:34:36;;;;;;;7.95;6.20;;;21.20;99.90;;;;;;5002594;28;20025;-80
2023/08/12 05:37:02;;;;;;;6.13;5.10;;;21.20;99.90;;;;;;5012773;28;20029;-80
2023/08/12 05:39:28;;;;;;;11.38;7.70;;;21.20;99.90;;;;;;5001779;28;20044;-80
2023/08/12 05:41:53;;;;;;;7.88;5.50;;;21.20;99.90;;;;;;5017127;28;20041;-80
2023/08/12 05:44:19;;;;;;;9.90;5.78;;;21.20;99.90;;;;;;5015934;28;20021;-80
2023/08/12 05:46:44;;;;;;;6.25;4.90;;;21.10;99.90;;;;;;5016418;28;20188;-80
2023/08/12 05:49:10;;;;;;;4.35;3.67;;;21.20;99.90;;;;;;5002032;28;20033;-79
2023/08/12 05:51:35;;;;;;;8.85;4.55;;;21.20;99.90;;;;;;5016342;28;20036;-80
2023/08/12 05:54:01;;;;;;;5.45;4.88;;;21.10;99.90;;;;;;5013722;28;20037;-80
2023/08/12 05:56:26;;;;;;;5.13;4.63;;;21.10;99.90;;;;;;5003346;28;20042;-80
2023/08/12 05:58:52;;;;;;;7.70;5.75;;;21.10;99.90;;;;;;5015277;28;20504;-80
2023/08/12 06:01:18;;;;;;;14.88;8.15;;;21.10;99.90;;;;;;5012777;28;20516;-80
2023/08/12 06:03:44;;;;;;;5.13;4.53;;;21.10;99.90;;;;;;4998897;28;20037;-80
2023/08/12 06:06:09;;;;;;;7.60;4.68;;;21.10;99.90;;;;;;5003017;28;20057;-80
2023/08/12 06:08:35;;;;;;;8.93;5.05;;;21.10;99.90;;;;;;4998664;28;20049;-80
2023/08/12 06:11:00;;;;;;;7.43;5.45;;;21.10;99.90;;;;;;4992607;28;20033;-80
2023/08/12 06:13:26;;;;;;;9.73;6.28;;;21.20;99.90;;;;;;5014270;28;20028;-80
2023/08/12 06:15:51;;;;;;;8.68;6.65;;;21.20;99.90;;;;;;5016838;28;20033;-80
2023/08/12 06:18:17;;;;;;;8.48;6.28;;;21.30;99.90;;;;;;5013810;28;20493;-80
2023/08/12 06:20:43;;;;;;;6.72;5.00;;;21.30;99.90;;;;;;5017215;28;20501;-81
2023/08/12 06:23:08;;;;;;;7.05;4.30;;;21.30;99.90;;;;;;5014910;28;20649;-80
2023/08/12 06:25:35;;;;;;;11.15;5.55;;;21.30;99.90;;;;;;5012093;28;20064;-80
2023/08/12 06:28:01;;;;;;;5.55;4.45;;;21.30;99.90;;;;;;4992059;28;20550;-80
2023/08/12 06:30:27;;;;;;;8.38;6.00;;;21.30;99.90;;;;;;5012965;28;20026;-81
2023/08/12 06:32:52;;;;;;;8.30;4.88;;;21.20;99.90;;;;;;5014172;28;20089;-80
2023/08/12 06:35:18;;;;;;;7.03;4.78;;;21.30;99.90;;;;;;5012669;28;20053;-80
2023/08/12 06:37:44;;;;;;;7.22;4.07;;;21.30;99.90;;;;;;5015367;28;20423;-80
2023/08/12 06:40:09;;;;;;;7.25;3.85;;;21.20;99.90;;;;;;5016431;28;20040;-80
2023/08/12 06:42:35;;;;;;;7.03;4.78;;;21.20;99.90;;;;;;4999541;28;20605;-80
2023/08/12 06:45:03;;;;;;;8.30;4.00;;;21.20;99.90;;;;;;4993170;28;20061;-80
2023/08/12 06:47:29;;;;;;;6.40;4.82;;;21.10;99.90;;;;;;5000537;28;20038;-79
2023/08/12 06:49:55;;;;;;;6.22;5.18;;;21.20;99.90;;;;;;5016003;28;20038;-78
2023/08/12 06:52:20;;;;;;;11.77;5.43;;;21.00;99.90;;;;;;4982905;28;20096;-79
2023/08/12 06:54:46;;;;;;;5.90;4.22;;;21.00;99.90;;;;;;5014191;28;20456;-79
2023/08/12 06:57:11;;;;;;;11.00;5.55;;;21.00;99.90;;;;;;4998470;28;20632;-80
2023/08/12 06:59:38;;;;;;;6.35;4.15;;;20.90;99.90;;;;;;4998317;28;20444;-78
2023/08/12 07:02:03;;;;;;;7.75;4.63;;;20.90;99.90;;;;;;5013665;28;20038;-78
2023/08/12 07:04:29;;;;;;;5.00;3.55;;;20.80;99.90;;;;;;5013523;28;20080;-79
2023/08/12 07:06:55;;;;;;;6.97;4.32;;;20.90;99.90;;;;;;5016614;28;20172;-79
2023/08/12 07:09:20;;;;;;;4.28;3.78;;;20.80;99.90;;;;;;5002154;28;22296;-80
2023/08/12 07:11:46;;;;;;;6.30;3.78;;;20.80;99.90;;;;;;5015209;28;20038;-78
2023/08/12 07:14:11;;;;;;;4.47;3.63;;;20.80;99.90;;;;;;5017643;28;20037;-79
2023/08/12 07:16:37;;;;;;;3.97;3.58;;;20.70;99.90;;;;;;5015640;28;20033;-79
2023/08/12 07:19:02;;;;;;;5.93;4.05;;;20.70;99.90;;;;;;5017276;28;20061;-78
2023/08/12 07:21:28;;;;;;;7.35;4.00;;;20.70;99.90;;;;;;4994655;28;20065;-79
2023/08/12 07:23:54;;;;;;;4.78;4.00;;;20.70;99.90;;;;;;5010246;28;20042;-79
2023/08/12 07:26:19;;;;;;;3.60;3.30;;;20.70;99.90;;;;;;5013981;28;20125;-79
2023/08/12 07:28:45;;;;;;;4.88;3.92;;;20.80;99.90;;;;;;5001150;28;20053;-79
2023/08/12 07:31:10;;;;;;;3.90;3.55;;;20.80;99.90;;;;;;5013280;28;20096;-80
2023/08/12 07:33:37;;;;;;;5.45;4.28;;;20.90;99.90;;;;;;5014393;28;20548;-80
2023/08/12 07:36:03;;;;;;;6.05;3.83;;;20.90;99.90;;;;;;5015980;28;20116;-81
2023/08/12 07:38:28;;;;;;;3.80;3.30;;;21.00;99.90;;;;;;5017041;28;20489;-81
2023/08/12 07:40:54;;;;;;;4.78;4.05;;;21.00;99.90;;;;;;5001564;28;20104;-80
2023/08/12 07:43:20;;;;;;;4.65;3.75;;;21.10;99.90;;;;;;4998097;28;20042;-80
2023/08/12 07:45:46;;;;;;;4.93;3.85;;;21.20;99.90;;;;;;4999606;28;20064;-81
2023/08/12 07:48:11;;;;;;;4.35;3.95;;;21.20;99.90;;;;;;4995269;28;20552;-80
2023/08/12 07:50:37;;;;;;;5.03;4.55;;;21.20;99.90;;;;;;5000108;28;20055;-79
2023/08/12 07:53:02;;;;;;;3.33;2.90;;;21.20;99.90;;;;;;4647699;28;10000592;-80
2023/08/12 07:55:28;;;;;;;3.53;3.23;;;21.30;99.90;;;;;;4297059;28;10000029;-80
2023/08/12 07:58:00;;;;;;;5.05;3.40;;;21.40;99.90;;;;;;5000544;28;20370;-79
2023/08/12 08:00:25;;;;;;;3.28;2.95;;;21.50;99.90;;;;;;4323919;28;10000452;-80
2023/08/12 08:02:51;;;;;;;3.45;3.03;;;21.60;99.90;;;;;;5003224;28;20041;-79
2023/08/12 08:05:17;;;;;;;4.18;3.88;;;21.70;99.90;;;;;;4995080;28;20149;-79
2023/08/12 08:07:42;;;;;;;4.38;3.50;;;21.90;99.90;;;;;;4990146;28;20022;-80
2023/08/12 08:10:08;;;;;;;4.20;3.80;;;22.00;99.90;;;;;;5017778;28;20037;-80
2023/08/12 08:12:34;;;;;;;3.80;3.50;;;22.00;99.90;;;;;;5018175;28;20041;-80
2023/08/12 08:14:59;;;;;;;5.45;3.60;;;22.00;99.90;;;;;;4990942;28;20536;-80
2023/08/12 08:17:25;;;;;;;4.82;4.38;;;21.90;99.90;;;;;;4990098;28;20393;-81
2023/08/12 08:19:50;;;;;;;4.78;4.28;;;22.00;99.90;;;;;;5001865;28;20057;-80
2023/08/12 08:22:16;;;;;;;5.00;4.60;;;22.10;99.90;;;;;;5016065;28;20037;-80
2023/08/12 08:24:41;;;;;;;4.93;4.43;;;22.10;99.90;;;;;;5020236;28;20025;-81
2023/08/12 08:27:07;;;;;;;6.32;5.53;;;22.10;99.90;;;;;;5014885;28;20124;-80
2023/08/12 08:29:33;;;;;;;4.28;3.83;;;22.20;99.90;;;;;;5014403;28;20555;-80
2023/08/12 08:31:58;;;;;;;5.50;5.00;;;22.30;99.90;;;;;;5003745;28;20053;-81
2023/08/12 08:34:24;;;;;;;6.32;4.55;;;22.20;99.90;;;;;;5002100;28;20041;-81
2023/08/12 08:36:50;;;;;;;5.65;3.58;;;22.20;99.90;;;;;;5016151;28;20044;-81
2023/08/12 08:39:16;;;;;;;6.10;5.50;;;22.20;99.90;;;;;;4998100;28;20049;-80
2023/08/12 08:41:41;;;;;;;5.07;4.57;;;22.20;99.90;;;;;;5016001;28;20038;-80
2023/08/12 08:44:08;;;;;;;7.82;4.30;;;22.30;99.90;;;;;;5016508;28;20044;-81
2023/08/12 08:46:34;;;;;;;6.15;4.60;;;22.40;99.90;;;;;;5002213;28;20044;-80
2023/08/12 08:49:02;;;;;;;4.00;3.67;;;22.60;99.90;;;;;;5003601;28;20061;-80
2023/08/12 08:51:30;;;;;;;3.95;3.55;;;22.50;99.90;;;;;;5015993;28;20029;-80
2023/08/12 08:53:55;;;;;;;5.53;5.03;;;22.60;99.90;;;;;;5000030;28;20504;-80
2023/08/12 08:56:21;;;;;;;5.13;4.32;;;22.50;99.90;;;;;;5012235;28;20037;-79
2023/08/12 08:58:47;;;;;;;5.13;3.80;;;22.50;99.90;;;;;;5013620;28;20046;-80
2023/08/12 09:01:13;;;;;;;4.95;3.78;;;22.60;99.90;;;;;;5013124;28;20618;-80
2023/08/12 09:03:39;;;;;;;4.53;3.92;;;22.60;99.90;;;;;;5012861;28;20129;-80
2023/08/12 09:06:05;;;;;;;3.97;3.67;;;22.60;99.90;;;;;;5003230;28;20030;-80
2023/08/12 09:08:31;;;;;;;5.82;4.05;;;22.80;99.90;;;;;;5018116;28;20033;-81
2023/08/12 09:10:58;;;;;;;4.35;3.60;;;23.00;99.90;;;;;;4999459;28;20033;-80
2023/08/12 09:13:23;;;;;;;3.90;3.50;;;23.10;99.90;;;;;;5001126;28;20049;-81
2023/08/12 09:15:49;;;;;;;4.18;3.67;;;23.00;99.90;;;;;;4999196;28;20041;-81
2023/08/12 09:18:16;;;;;;;5.32;3.30;;;23.10;99.90;;;;;;5017468;28;20398;-80
2023/08/12 09:20:43;;;;;;;6.22;3.90;;;23.20;99.90;;;;;;5017880;28;20750;-80
2023/08/12 09:23:10;;;;;;;4.50;4.07;;;23.10;99.90;;;;;;5003929;28;20068;-80
2023/08/12 09:25:41;;;;;;;2.97;2.60;;;23.10;99.90;;;;;;5011724;28;20042;-79
2023/08/12 09:28:07;;;;;;;4.00;3.42;;;23.10;99.90;;;;;;5001222;28;20044;-80
2023/08/12 09:30:33;;;;;;;3.42;2.63;;;22.90;99.90;;;;;;5004706;28;20552;-80
2023/08/12 09:33:03;;;;;;;3.70;3.40;;;23.00;99.90;;;;;;5017837;28;20232;-80
2023/08/12 09:35:32;;;;;;;4.43;2.97;;;23.10;99.90;;;;;;4989434;28;20741;-80
2023/08/12 09:37:58;;;;;;;2.90;2.60;;;23.10;99.90;;;;;;5013978;28;20176;-80
2023/08/12 09:40:24;;;;;;;3.03;2.58;;;23.20;99.90;;;;;;5019800;28;20077;-81
2023/08/12 09:42:50;;;;;;;5.05;2.60;;;23.30;99.90;;;;;;5015305;28;20030;-81
2023/08/12 09:45:15;;;;;;;3.92;2.42;;;23.50;99.90;;;;;;4984301;28;20083;-80
2023/08/12 09:47:44;;;;;;;2.85;2.20;;;23.50;99.90;;;;;;5003343;28;20041;-79
2023/08/12 09:50:10;;;;;;;2.83;1.52;;;23.50;99.90;;;;;;4997544;28;20029;-81
2023/08/12 09:52:35;;;;;;;3.08;2.70;;;23.60;99.90;;;;;;5003661;28;20029;-82
2023/08/12 09:55:01;;;;;;;5.15;2.70;;;23.60;99.90;;;;;;4996961;28;20374;-80
2023/08/12 09:57:27;;;;;;;2.53;2.05;;;23.70;99.90;;;;;;5018209;28;20041;-79
2023/08/12 09:59:53;;;;;;;5.20;2.50;;;23.50;99.90;;;;;;4988988;28;20030;-81
2023/08/12 10:02:19;;;;;;;4.70;2.42;;;23.40;99.90;;;;;;5000456;28;20041;-79
2023/08/12 10:04:46;;;;;;;4.63;2.30;;;23.60;99.90;;;;;;5014728;28;20096;-82
2023/08/12 10:07:14;;;;;;;4.70;2.50;;;23.60;99.90;;;;;;4998838;28;20041;-80
2023/08/12 10:09:40;;;;;;;1.73;1.60;;;23.70;99.90;;;;;;4988959;28;20485;-82
2023/08/12 10:12:09;;;;;;;3.40;1.77;;;23.60;99.90;;;;;;5017543;28;20045;-80
2023/08/12 10:14:38;;;;;;;1.88;1.70;;;23.60;99.90;;;;;;5016751;28;20038;-80
2023/08/12 10:17:04;;;;;;;1.48;1.33;;;23.70;99.90;;;;;;4995112;28;20037;-80
2023/08/12 10:19:30;;;;;;;5.28;1.70;;;23.80;99.90;;;;;;4985444;28;20725;-80
2023/08/12 10:21:57;;;;;;;1.38;1.27;;;23.90;99.90;;;;;;4980592;28;20052;-80
2023/08/12 10:24:24;;;;;;;1.30;1.20;;;24.20;99.90;;;;;;5013648;28;20029;-80
2023/08/12 10:26:50;;;;;;;1.45;1.35;;;24.50;99.90;;;;;;4989099;28;20084;-80
2023/08/12 10:29:16;;;;;;;1.63;1.50;;;24.80;99.90;;;;;;5000925;28;20425;-81
2023/08/12 10:31:44;;;;;;;3.60;1.48;;;24.70;99.90;;;;;;4997626;28;20041;-80
2023/08/12 10:34:20;;;;;;;2.40;1.40;;;24.70;99.90;;;;;;5003828;28;20025;-81
2023/08/12 10:37:01;;;;;;;1.83;1.52;;;24.90;99.90;;;;;;5013825;28;20042;-80
2023/08/12 10:39:28;;;;;;;1.73;1.48;;;24.70;99.90;;;;;;5016672;28;20034;-80
2023/08/12 10:41:57;;;;;;;1.83;1.17;;;25.00;99.90;;;;;;5007121;28;20755;-80
2023/08/12 10:44:26;;;;;;;1.75;1.60;;;25.10;99.90;;;;;;5003367;28;20405;-80
2023/08/12 10:46:52;;;;;;;2.15;1.25;;;25.10;99.90;;;;;;5012507;28;20402;-81
2023/08/12 10:49:19;;;;;;;1.50;1.40;;;25.10;99.90;;;;;;4992950;28;20029;-81
2023/08/12 10:51:54;;;;;;;1.95;1.75;;;25.50;99.90;;;;;;4997295;28;20409;-82
2023/08/12 10:54:20;;;;;;;2.03;1.40;;;25.60;99.90;;;;;;4996643;28;20022;-80
2023/08/12 10:57:13;;;;;;;3.75;1.70;;;25.40;99.90;;;;;;5018759;28;20040;-80
2023/08/12 10:59:44;;;;;;;3.63;1.30;;;25.10;99.90;;;;;;4998603;28;20493;-80
2023/08/12 11:02:29;;;;;;;5.25;1.55;;;24.90;99.90;;;;;;5014609;28;20034;-79
2023/08/12 11:05:02;;;;;;;5.28;1.52;;;24.60;99.90;;;;;;4988380;28;20573;-79
2023/08/12 11:07:37;;;;;;;1.98;1.23;;;24.40;99.90;;;;;;5012971;28;20034;-79
2023/08/12 11:10:11;;;;;;;1.87;1.20;;;24.20;99.90;;;;;;5014707;28;20505;-79
2023/08/12 11:12:36;;;;;;;2.10;1.30;;;24.20;99.90;;;;;;5018307;28;20580;-79
2023/08/12 11:15:04;;;;;;;1.67;0.85;;;24.10;99.90;;;;;;5018710;28;20121;-79
2023/08/12 11:17:49;;;;;;;0.82;0.68;;;24.10;99.90;;;;;;5012605;28;20033;-79
2023/08/12 11:20:15;;;;;;;1.80;1.02;;;24.20;99.90;;;;;;5014423;28;20069;-79
2023/08/12 11:22:42;;;;;;;0.80;0.80;;;24.10;99.90;;;;;;5002697;28;20124;-81
2023/08/12 11:25:09;;;;;;;0.98;0.80;;;24.30;99.90;;;;;;5010001;28;20489;-79
2023/08/12 11:27:43;;;;;;;3.65;0.85;;;24.30;99.90;;;;;;5015155;28;20042;-80
2023/08/12 11:30:14;;;;;;;2.22;1.00;;;24.30;99.90;;;;;;5015475;28;20437;-81
2023/08/12 11:32:43;;;;;;;1.10;0.93;;;24.20;99.90;;;;;;5003974;28;20037;-81
2023/08/12 11:35:10;;;;;;;2.40;0.50;;;24.50;99.90;;;;;;4666053;28;9999986;-81
2023/08/12 11:37:36;;;;;;;0.98;0.82;;;24.60;99.90;;;;;;4996713;28;20090;-81
2023/08/12 11:40:03;;;;;;;0.60;0.60;;;24.70;99.90;;;;;;5018120;28;20311;-81
2023/08/12 11:42:29;;;;;;;0.88;0.60;;;24.80;99.90;;;;;;5012908;28;20562;-81
2023/08/12 11:44:55;;;;;;;1.42;0.60;;;24.90;99.90;;;;;;5016956;28;20049;-80
2023/08/12 11:47:20;;;;;;;0.70;0.70;;;25.00;99.90;;;;;;4985703;28;20038;-81
2023/08/12 11:49:46;;;;;;;1.85;0.77;;;25.10;99.90;;;;;;5012542;28;20042;-80
2023/08/12 11:52:11;;;;;;;2.78;0.60;;;25.20;99.90;;;;;;4979654;28;20113;-81
2023/08/12 11:54:37;;;;;;;2.92;0.90;;;25.30;99.90;;;;;;5012695;28;20030;-81
2023/08/12 11:57:03;;;;;;;1.63;0.50;;;25.30;99.90;;;;;;5000167;28;20052;-81
2023/08/12 11:59:30;;;;;;;0.75;0.63;;;25.30;99.90;;;;;;5019068;28;20167;-80
2023/08/12 12:01:55;;;;;;;0.70;0.50;;;25.20;99.90;;;;;;5004392;28;20099;-80
2023/08/12 12:04:21;;;;;;;1.15;0.73;;;25.10;99.90;;;;;;5002946;28;20653;-81
2023/08/12 12:06:47;;;;;;;1.73;0.80;;;25.00;99.90;;;;;;4999926;28;20485;-81
2023/08/12 12:09:20;;;;;;;0.52;0.52;;;25.10;99.90;;;;;;5018817;28;20091;-80
2023/08/12 12:11:45;;;;;;;0.77;0.60;;;25.30;99.90;;;;;;5003173;28;20550;-81
2023/08/12 12:14:11;;;;;;;0.60;0.60;;;25.60;99.90;;;;;;5015366;28;20033;-81
2023/08/12 12:16:37;;;;;;;1.35;0.93;;;25.70;99.90;;;;;;5018754;28;20370;-81
2023/08/12 12:19:05;;;;;;;0.75;0.57;;;25.70;99.90;;;;;;5015564;28;20436;-81
2023/08/12 12:21:31;;;;;;;0.80;0.60;;;26.00;99.90;;;;;;5017033;28;20042;-79
2023/08/12 12:23:56;;;;;;;1.38;0.50;;;26.20;99.90;;;;;;5002511;28;20100;-79
2023/08/12 12:26:23;;;;;;;1.50;0.80;;;26.50;99.90;;;;;;4987779;28;20060;-79
2023/08/12 12:28:48;;;;;;;1.67;0.70;;;26.50;99.90;;;;;;5017289;28;20767;-80
2023/08/12 12:31:14;;;;;;;1.88;0.90;;;26.80;99.90;;;;;;5014726;28;20037;-80
2023/08/12 12:33:39;;;;;;;0.80;0.80;;;27.20;99.90;;;;;;5013270;28;20044;-79
2023/08/12 12:36:05;;;;;;;1.15;1.00;;;27.40;99.90;;;;;;5001750;28;20049;-79